createdAt,value
2022-10-23T00:03:53.124Z,0.2
2022-10-23T00:08:49.671Z,0.2
2022-10-23T00:13:50.299Z,0.2
2022-10-23T00:18:48.927Z,0.2
2022-10-23T00:23:48.749Z,0.2
2022-10-23T00:28:46.397Z,0.2
2022-10-23T00:33:46.070Z,0.2
2022-10-23T00:38:46.218Z,0.2
2022-10-23T00:43:45.903Z,0.2
2022-10-23T00:48:44.707Z,0.2
2022-10-23T00:53:44.423Z,0.2
2022-10-23T00:58:44.258Z,0.2
2022-10-23T01:03:43.862Z,0.2
2022-10-23T01:08:44.970Z,0.2
2022-10-23T01:13:41.818Z,0.2
2022-10-23T01:18:41.731Z,0.2
2022-10-23T01:23:40.249Z,0.2
2022-10-23T01:28:39.852Z,0.2
2022-10-23T01:33:39.158Z,0.2
2022-10-23T01:38:39.229Z,0.2
2022-10-23T01:43:38.086Z,0.2
2022-10-23T01:48:39.745Z,0.2
2022-10-23T01:53:36.343Z,0.2
2022-10-23T01:58:36.718Z,0.2
2022-10-23T01:59:57.557Z,0.2
2022-10-23T02:04:57.430Z,0.2
2022-10-23T02:09:55.153Z,0.1
2022-10-23T02:14:55.045Z,0.2
2022-10-23T02:19:54.847Z,0.2
2022-10-23T02:24:54.250Z,0.2
2022-10-23T02:29:53.459Z,0.2
2022-10-23T02:34:53.119Z,0.2
2022-10-23T02:39:53.408Z,0.2
2022-10-23T02:44:52.526Z,0.2
2022-10-23T02:49:53.362Z,0.2
2022-10-23T02:54:50.259Z,0.2
2022-10-23T02:59:09.923Z,0.2
2022-10-23T03:04:10.497Z,0.2
2022-10-23T03:09:09.592Z,0.2
2022-10-23T03:14:08.939Z,0.2
2022-10-23T03:19:08.792Z,0.2
2022-10-23T03:24:08.044Z,0.2
2022-10-23T03:29:08.865Z,0.2
2022-10-23T03:34:09.675Z,0.2
2022-10-23T03:39:05.719Z,0.2
2022-10-23T03:44:05.856Z,0.2
2022-10-23T03:49:04.584Z,0.2
2022-10-23T03:54:03.094Z,0.2
2022-10-23T03:58:58.584Z,0.2
2022-10-23T04:03:58.875Z,0.2
2022-10-23T04:08:58.399Z,0.2
2022-10-23T04:13:57.797Z,0.2
2022-10-23T04:18:57.177Z,0.2
2022-10-23T04:23:56.895Z,0.2
2022-10-23T04:28:55.943Z,0.2
2022-10-23T04:33:57.049Z,0.2
2022-10-23T04:38:53.895Z,0.2
2022-10-23T04:43:53.920Z,0.2
2022-10-23T04:48:53.059Z,0.2
2022-10-23T04:53:52.236Z,0.2
2022-10-23T04:58:51.388Z,0.2
2022-10-23T05:03:52.050Z,0.2
2022-10-23T05:08:49.909Z,0.2
2022-10-23T05:13:51.212Z,0.2
2022-10-23T05:18:47.935Z,0.2
2022-10-23T05:23:48.220Z,0.2
2022-10-23T05:28:46.936Z,0.2
2022-10-23T05:33:46.849Z,0.3
2022-10-23T05:38:45.096Z,0.4
2022-10-23T05:43:44.788Z,0.7
2022-10-23T05:48:44.976Z,1.1
2022-10-23T05:53:45.132Z,1.6
2022-10-23T05:58:43.792Z,2.2
2022-10-23T06:03:42.879Z,3.6
2022-10-23T06:08:43.242Z,5.4
2022-10-23T06:13:42.672Z,8.1
2022-10-23T06:18:40.465Z,10.7
2022-10-23T06:23:40.286Z,14.5
2022-10-23T06:28:39.450Z,18
2022-10-23T06:33:40.240Z,22
2022-10-23T06:38:37.404Z,25.7
2022-10-23T06:43:37.350Z,27.6
2022-10-23T06:48:36.092Z,26.3
2022-10-23T06:53:35.874Z,25.6
2022-10-23T06:58:34.066Z,32.7
2022-10-23T06:59:55.199Z,35.3
2022-10-23T07:04:55.263Z,42.1
2022-10-23T07:09:54.430Z,57.6
2022-10-23T07:14:54.116Z,59.2
2022-10-23T07:19:53.809Z,66.4
2022-10-23T07:24:53.588Z,80.8
2022-10-23T07:29:53.630Z,65.2
2022-10-23T07:34:53.629Z,49.4
2022-10-23T07:39:50.993Z,49.4
2022-10-23T07:44:51.121Z,62.5
2022-10-23T07:49:50.143Z,81.1
2022-10-23T07:54:49.841Z,82.1
2022-10-23T07:59:15.422Z,86.4
2022-10-23T08:04:15.781Z,80.5
2022-10-23T08:09:14.858Z,80.3
2022-10-23T08:14:15.885Z,80.1
2022-10-23T08:19:13.304Z,85.8
2022-10-23T08:24:13.390Z,89.6
2022-10-23T08:29:12.391Z,95.4
2022-10-23T08:34:12.210Z,106.8
2022-10-23T08:39:10.236Z,117.6
2022-10-23T08:44:10.355Z,124
2022-10-23T08:49:10.166Z,124.3
2022-10-23T08:54:10.191Z,123.5
2022-10-23T08:58:56.371Z,130.9
2022-10-23T09:03:56.052Z,133.3
2022-10-23T09:08:55.731Z,138.4
2022-10-23T09:13:55.270Z,136.9
2022-10-23T09:18:55.999Z,122.8
2022-10-23T09:23:53.871Z,118.3
2022-10-23T09:28:54.094Z,135
2022-10-23T09:33:53.715Z,142.4
2022-10-23T09:38:52.462Z,197.3
2022-10-23T09:43:51.975Z,203.7
2022-10-23T09:48:52.287Z,222.8
2022-10-23T09:53:51.443Z,249.3
2022-10-23T09:58:52.692Z,223.6
2022-10-23T10:03:49.337Z,212.4
2022-10-23T10:08:49.394Z,172.4
2022-10-23T10:13:48.315Z,183.8
2022-10-23T10:18:48.073Z,249.6
2022-10-23T10:23:46.576Z,248.7
2022-10-23T10:28:46.578Z,265.7
2022-10-23T10:33:46.346Z,455.7
2022-10-23T10:38:46.198Z,168.7
2022-10-23T10:43:45.578Z,168.8
2022-10-23T10:48:45.271Z,186.2
2022-10-23T10:53:45.109Z,192.7
2022-10-23T10:58:44.442Z,217.4
2022-10-23T11:03:45.265Z,184.3
2022-10-23T11:09:19.609Z,134.2
2022-10-23T11:13:42.266Z,125.1
2022-10-23T11:18:41.738Z,150.7
2022-10-23T11:23:40.880Z,160.8
2022-10-23T11:28:39.976Z,172
2022-10-23T11:33:45.508Z,427.9
2022-10-23T11:38:40.009Z,284.5
2022-10-23T11:43:40.840Z,262.2
2022-10-23T11:48:37.855Z,227.5
2022-10-23T11:53:37.926Z,220.5
2022-10-23T11:58:37.402Z,213.7
2022-10-23T11:59:59.352Z,207
2022-10-23T12:04:57.753Z,211.2
2022-10-23T12:09:56.942Z,240.7
2022-10-23T12:14:57.209Z,279.5
2022-10-23T12:19:56.096Z,345
2022-10-23T12:24:55.846Z,217.4
2022-10-23T12:29:55.195Z,231.6
2022-10-23T12:34:55.409Z,235.8
2022-10-23T12:39:54.716Z,184.3
2022-10-23T12:44:55.329Z,156.3
2022-10-23T12:49:52.508Z,178.7
2022-10-23T12:54:52.634Z,191
2022-10-23T12:59:14.554Z,227
2022-10-23T13:04:14.366Z,394.1
2022-10-23T13:09:13.508Z,313.8
2022-10-23T13:14:13.849Z,344.9
2022-10-23T13:19:13.496Z,354.7
2022-10-23T13:24:14.151Z,180.5
2022-10-23T13:29:11.634Z,111.1
2022-10-23T13:34:11.423Z,103.8
2022-10-23T13:39:10.046Z,125.5
2022-10-23T13:44:09.429Z,127.5
2022-10-23T13:49:07.607Z,188.4
2022-10-23T13:54:07.590Z,104.5
2022-10-23T13:58:53.205Z,78.6
2022-10-23T14:03:53.469Z,84.6
2022-10-23T14:08:52.174Z,72.8
2022-10-23T14:13:51.677Z,59.8
2022-10-23T14:18:50.623Z,56.7
2022-10-23T14:23:50.321Z,52.3
2022-10-23T14:28:55.800Z,61.4
2022-10-23T14:33:46.525Z,64.4
2022-10-23T14:38:46.779Z,56.6
2022-10-23T14:43:44.935Z,43.8
2022-10-23T14:48:56.493Z,38.7
2022-10-23T14:53:44.522Z,36.6
2022-10-23T14:58:43.922Z,37.6
2022-10-23T15:03:43.192Z,33.6
2022-10-23T15:08:42.793Z,36
2022-10-23T15:13:42.275Z,30.9
2022-10-23T15:18:41.631Z,41.2
2022-10-23T15:23:41.991Z,65.3
2022-10-23T15:28:39.696Z,57.5
2022-10-23T15:33:39.098Z,42.7
2022-10-23T15:38:38.600Z,33.2
2022-10-23T15:43:38.044Z,31.9
2022-10-23T15:48:37.287Z,29.6
2022-10-23T15:53:36.455Z,25.2
2022-10-23T15:58:36.084Z,20
2022-10-23T16:03:35.331Z,15
2022-10-23T16:08:33.195Z,10.4
2022-10-23T16:13:32.669Z,4
2022-10-23T16:18:33.240Z,2.6
2022-10-23T16:23:32.179Z,1
2022-10-23T16:28:30.334Z,0.6
2022-10-23T16:33:29.513Z,0.5
2022-10-23T16:38:29.970Z,0.3
2022-10-23T16:43:28.938Z,0.3
2022-10-23T16:48:28.534Z,0.3
2022-10-23T16:53:27.695Z,0.2
2022-10-23T16:58:27.723Z,0.3
2022-10-23T16:59:49.220Z,0.1
2022-10-23T17:04:49.808Z,0.2
2022-10-23T17:09:47.156Z,0.2
2022-10-23T17:14:47.309Z,0.2
2022-10-23T17:19:48.005Z,0.2
2022-10-23T17:24:54.167Z,0.2
2022-10-23T17:29:43.934Z,0.1
2022-10-23T17:34:43.713Z,0.2
2022-10-23T17:39:43.544Z,0.2
2022-10-23T17:44:44.817Z,0.2
2022-10-23T17:49:47.123Z,0.2
2022-10-23T17:54:42.017Z,0.2
2022-10-23T17:59:12.429Z,0.2
2022-10-23T18:04:11.813Z,0.2
2022-10-23T18:09:09.823Z,0.2
2022-10-23T18:14:09.620Z,0.2
2022-10-23T18:19:09.515Z,0.2
2022-10-23T18:24:08.812Z,0.2
2022-10-23T18:29:07.669Z,0.2
2022-10-23T18:34:07.331Z,0.2
2022-10-23T18:39:07.470Z,0.2
2022-10-23T18:44:06.547Z,0.2
2022-10-23T18:49:07.180Z,0.2
2022-10-23T18:54:04.346Z,0.2
2022-10-23T18:58:50.295Z,0.2
2022-10-23T19:03:50.085Z,0.2
2022-10-23T19:08:48.914Z,0.2
2022-10-23T19:13:47.872Z,0.2
2022-10-23T19:18:46.742Z,0.2
2022-10-23T19:23:46.419Z,0.2
2022-10-23T19:28:47.694Z,0.2
2022-10-23T19:33:44.367Z,0.2
2022-10-23T19:38:44.449Z,0.2
2022-10-23T19:43:42.978Z,0.2
2022-10-23T19:48:43.413Z,0.2
2022-10-23T19:53:41.462Z,0.2
2022-10-23T19:58:40.606Z,0.2
2022-10-23T20:00:02.667Z,0.2
2022-10-23T20:05:01.404Z,0.2
2022-10-23T20:10:00.520Z,0.2
2022-10-23T20:15:00.010Z,0.2
2022-10-23T20:19:59.586Z,0.2
2022-10-23T20:24:58.838Z,0.2
2022-10-23T20:29:59.643Z,0.2
2022-10-23T20:34:56.875Z,0.2
2022-10-23T20:39:56.728Z,0.1
2022-10-23T20:44:56.297Z,0.2
2022-10-23T20:49:55.618Z,0.2
2022-10-23T20:54:53.675Z,0.2
2022-10-23T20:59:27.547Z,0.2
2022-10-23T21:04:27.762Z,0.2
2022-10-23T21:09:14.710Z,0.2
2022-10-23T21:14:14.463Z,0.2
2022-10-23T21:19:14.121Z,0.2
2022-10-23T21:24:14.009Z,0.2
2022-10-23T21:29:21.713Z,0.2
2022-10-23T21:34:13.417Z,0.2
2022-10-23T21:39:12.421Z,0.2
2022-10-23T21:44:12.582Z,0.2
2022-10-23T21:49:12.937Z,0.2
2022-10-23T21:54:09.756Z,0.2
2022-10-23T21:58:56.794Z,0.2
2022-10-23T22:03:55.810Z,0.2
2022-10-23T22:08:55.083Z,0.2
2022-10-23T22:13:54.521Z,0.2
2022-10-23T22:18:53.493Z,0.2
2022-10-23T22:23:53.914Z,0.2
2022-10-23T22:28:54.174Z,0.2
2022-10-23T22:33:50.930Z,0.2
2022-10-23T22:38:51.400Z,0.2
2022-10-23T22:43:50.349Z,0.2
2022-10-23T22:48:49.327Z,0.2
2022-10-23T22:53:48.953Z,0.2
2022-10-23T22:58:48.546Z,0.2
2022-10-23T23:03:47.225Z,0.2
2022-10-23T23:08:48.596Z,0.2
2022-10-23T23:13:45.225Z,0.2
2022-10-23T23:18:45.412Z,0.2
2022-10-23T23:23:44.192Z,0.2
2022-10-23T23:28:43.998Z,0.2
2022-10-23T23:33:42.802Z,0.2
2022-10-23T23:38:42.081Z,0.2
2022-10-23T23:43:41.932Z,0.2
2022-10-23T23:48:41.621Z,0.2
2022-10-23T23:53:40.714Z,0.2
2022-10-23T23:58:40.322Z,0.2
